Time;durP1;ratioP1;P1;durP2;ratioP2;P2;SDS_P1;SDS_P2;PMS_P1;PMS_P2;Temp;Humidity;BMP_temperature;BMP_pressure;BME280_temperature;BME280_humidity;BME280_pressure;Samples;Min_cycle;Max_cycle;Signal;HPM_P1;HPM_P2
2023/01/05 00:02:06;;;;;;;27.10;2.78;;;;;;;;;;6206895;23;20442;-42
2023/01/05 00:04:34;;;;;;;33.75;3.88;;;;;;;;;;6200344;23;20016;-42
2023/01/05 00:07:03;;;;;;;22.08;2.92;;;;;;;;;;6216912;23;20367;-43
2023/01/05 00:09:31;;;;;;;32.37;3.07;;;;;;;;;;6206974;23;20066;-41
2023/01/05 00:23:04;;;;;;;31.20;3.17;;;;;;;;;;6220165;23;20016;-42
2023/01/05 00:25:33;;;;;;;29.65;2.78;;;;;;;;;;6207806;23;20012;-43
2023/01/05 00:28:00;;;;;;;23.70;2.65;;;;;;;;;;6219043;23;20345;-42
2023/01/05 00:30:30;;;;;;;25.58;2.17;;;;;;;;;;6213148;23;20008;-44
2023/01/05 00:32:58;;;;;;;30.85;3.88;;;;;;;;;;6215241;23;20020;-44
2023/01/05 00:35:26;;;;;;;19.83;3.33;;;;;;;;;;6205571;23;20027;-43
2023/01/05 00:37:55;;;;;;;25.58;3.00;;;;;;;;;;6215503;22;20115;-43
2023/01/05 00:40:24;;;;;;;32.00;3.50;;;;;;;;;;6215850;23;20024;-42
2023/01/05 00:42:52;;;;;;;25.73;2.10;;;;;;;;;;6202743;23;20030;-43
2023/01/05 00:45:20;;;;;;;29.20;2.97;;;;;;;;;;6218868;23;20092;-42
2023/01/05 00:47:50;;;;;;;18.60;3.47;;;;;;;;;;6210565;23;20016;-43
2023/01/05 00:50:18;;;;;;;23.98;3.08;;;;;;;;;;6217580;23;20016;-42
2023/01/05 00:52:46;;;;;;;27.23;2.85;;;;;;;;;;6204422;23;20012;-43
2023/01/05 00:55:14;;;;;;;26.50;3.42;;;;;;;;;;6219034;23;20043;-44
2023/01/05 00:57:44;;;;;;;25.90;3.30;;;;;;;;;;6205623;23;20012;-42
2023/01/05 01:00:13;;;;;;;25.60;2.50;;;;;;;;;;6217950;23;20655;-43
2023/01/05 01:02:41;;;;;;;27.35;3.22;;;;;;;;;;6197812;23;20012;-43
2023/01/05 01:05:09;;;;;;;33.40;3.03;;;;;;;;;;6208757;23;20019;-43
2023/01/05 01:07:36;;;;;;;30.35;2.95;;;;;;;;;;6204288;23;20374;-42
2023/01/05 01:10:05;;;;;;;17.50;2.45;;;;;;;;;;6221524;23;20078;-43
2023/01/05 01:12:32;;;;;;;22.67;2.73;;;;;;;;;;6204797;23;20451;-42
2023/01/05 01:15:02;;;;;;;20.55;2.28;;;;;;;;;;6218927;23;20016;-42
2023/01/05 01:17:30;;;;;;;33.90;2.92;;;;;;;;;;6210952;23;20581;-44
2023/01/05 01:19:58;;;;;;;25.65;2.60;;;;;;;;;;6215300;23;20023;-44
2023/01/05 01:22:26;;;;;;;18.90;2.50;;;;;;;;;;6209546;23;20012;-42
2023/01/05 01:24:54;;;;;;;26.43;3.03;;;;;;;;;;6215321;23;20016;-43
2023/01/05 01:27:21;;;;;;;27.15;3.65;;;;;;;;;;6210260;23;20013;-42
2023/01/05 01:29:49;;;;;;;31.60;3.53;;;;;;;;;;6219422;23;20462;-42
2023/01/05 01:32:23;;;;;;;29.85;3.88;;;;;;;;;;6216824;22;20421;-42
2023/01/05 01:34:51;;;;;;;21.73;2.55;;;;;;;;;;6215006;23;20023;-42
2023/01/05 01:37:18;;;;;;;23.03;2.10;;;;;;;;;;6222293;23;20038;-42
2023/01/05 01:39:46;;;;;;;36.33;3.17;;;;;;;;;;6210461;23;20016;-42
2023/01/05 01:42:14;;;;;;;29.05;3.20;;;;;;;;;;6222766;23;20046;-42
2023/01/05 01:44:56;;;;;;;27.48;3.03;;;;;;;;;;6212104;23;20051;-42
2023/01/05 01:47:39;;;;;;;29.42;2.83;;;;;;;;;;6218091;23;20050;-42
2023/01/05 01:50:10;;;;;;;28.70;2.73;;;;;;;;;;6221461;23;20046;-42
2023/01/05 01:52:43;;;;;;;25.42;2.40;;;;;;;;;;6188202;23;20095;-43
2023/01/05 01:55:11;;;;;;;25.10;3.28;;;;;;;;;;6208954;22;20070;-43
2023/01/05 01:57:40;;;;;;;30.63;3.10;;;;;;;;;;6213894;23;20335;-42
2023/01/05 02:00:09;;;;;;;28.00;1.80;;;;;;;;;;6207370;23;20043;-42
2023/01/05 02:02:41;;;;;;;26.97;3.20;;;;;;;;;;6211742;23;20095;-42
2023/01/05 02:05:15;;;;;;;28.75;3.08;;;;;;;;;;6222193;23;20082;-42
2023/01/05 02:07:44;;;;;;;24.50;2.90;;;;;;;;;;6207532;23;20013;-42
2023/01/05 02:10:13;;;;;;;21.85;2.55;;;;;;;;;;6215011;23;20028;-42
2023/01/05 02:12:48;;;;;;;27.63;2.92;;;;;;;;;;6211762;23;20055;-43
2023/01/05 02:15:22;;;;;;;18.53;2.20;;;;;;;;;;6222905;23;20388;-43
2023/01/05 02:17:55;;;;;;;27.52;3.83;;;;;;;;;;6214224;23;20066;-42
2023/01/05 02:20:35;;;;;;;28.05;2.88;;;;;;;;;;6220514;23;20047;-42
2023/01/05 02:23:20;;;;;;;31.58;2.90;;;;;;;;;;6213002;23;20012;-42
2023/01/05 02:26:01;;;;;;;31.33;3.58;;;;;;;;;;6215775;22;20020;-42
2023/01/05 02:28:39;;;;;;;28.10;2.70;;;;;;;;;;6211975;23;20066;-44
2023/01/05 02:31:11;;;;;;;29.48;3.10;;;;;;;;;;6221354;23;20012;-42
2023/01/05 02:33:53;;;;;;;26.95;2.58;;;;;;;;;;6205438;23;20024;-42
2023/01/05 02:36:26;;;;;;;20.75;3.28;;;;;;;;;;6208517;23;20020;-42
2023/01/05 02:38:58;;;;;;;30.80;3.40;;;;;;;;;;6220424;23;20016;-44
2023/01/05 02:41:31;;;;;;;18.40;2.27;;;;;;;;;;6195067;23;20016;-42
2023/01/05 02:44:00;;;;;;;22.23;1.95;;;;;;;;;;6210940;23;20360;-43
2023/01/05 02:46:29;;;;;;;26.45;2.83;;;;;;;;;;6214804;23;20173;-42
2023/01/05 02:48:58;;;;;;;27.20;2.40;;;;;;;;;;6214679;23;20431;-42
2023/01/05 02:51:29;;;;;;;20.90;2.88;;;;;;;;;;6217738;23;20042;-41
2023/01/05 02:53:59;;;;;;;28.70;3.40;;;;;;;;;;6210006;23;20092;-42
2023/01/05 02:56:29;;;;;;;22.58;2.88;;;;;;;;;;6217221;23;20016;-41
2023/01/05 02:59:01;;;;;;;24.75;2.40;;;;;;;;;;6215277;22;20493;-42
2023/01/05 03:01:33;;;;;;;29.48;2.47;;;;;;;;;;6208079;23;20035;-43
2023/01/05 03:04:03;;;;;;;26.50;2.50;;;;;;;;;;6216015;23;20320;-43
2023/01/05 03:06:33;;;;;;;34.87;4.00;;;;;;;;;;6215211;23;20059;-42
2023/01/05 03:09:02;;;;;;;21.50;3.10;;;;;;;;;;6186373;23;20020;-42
2023/01/05 03:14:21;;;;;;;25.52;2.97;;;;;;;;;;6217855;23;20066;-43
2023/01/05 03:16:50;;;;;;;27.67;2.95;;;;;;;;;;6216331;23;20111;-44
2023/01/05 03:19:39;;;;;;;23.80;2.57;;;;;;;;;;6213058;23;20012;-42
2023/01/05 03:36:12;;;;;;;24.73;2.10;;;;;;;;;;6213518;23;20016;-44
2023/01/05 03:38:42;;;;;;;31.60;3.13;;;;;;;;;;6213380;23;20012;-42
2023/01/05 03:41:12;;;;;;;26.85;2.45;;;;;;;;;;6214868;23;20016;-42
2023/01/05 03:43:41;;;;;;;29.42;2.85;;;;;;;;;;6213031;23;20039;-42
2023/01/05 03:46:09;;;;;;;22.93;2.30;;;;;;;;;;6207621;23;20086;-42
2023/01/05 03:48:38;;;;;;;27.00;3.17;;;;;;;;;;6217245;23;20016;-43
2023/01/05 03:51:06;;;;;;;28.83;2.55;;;;;;;;;;6220535;23;20008;-42
2023/01/05 03:53:34;;;;;;;26.67;3.05;;;;;;;;;;6207756;23;20040;-44
2023/01/05 03:56:02;;;;;;;22.85;2.47;;;;;;;;;;6216519;23;20016;-43
2023/01/05 03:58:29;;;;;;;26.63;3.13;;;;;;;;;;6211427;23;20090;-41
2023/01/05 04:00:57;;;;;;;22.10;2.45;;;;;;;;;;6209196;23;20012;-43
2023/01/05 04:03:26;;;;;;;27.75;2.70;;;;;;;;;;6212194;23;20019;-42
2023/01/05 04:06:01;;;;;;;32.10;3.10;;;;;;;;;;6214153;23;20099;-43
2023/01/05 04:08:29;;;;;;;34.33;3.22;;;;;;;;;;6207653;23;20103;-42
2023/01/05 04:10:56;;;;;;;36.93;3.13;;;;;;;;;;6212826;23;20107;-42
2023/01/05 04:13:24;;;;;;;21.13;2.20;;;;;;;;;;6219961;23;20040;-42
2023/01/05 04:15:52;;;;;;;34.67;3.17;;;;;;;;;;6209856;22;20913;-42
2023/01/05 04:18:20;;;;;;;33.92;3.65;;;;;;;;;;6193486;23;20019;-42
2023/01/05 04:20:48;;;;;;;32.42;3.72;;;;;;;;;;6216739;23;20390;-43
2023/01/05 04:23:17;;;;;;;34.57;3.90;;;;;;;;;;6218173;23;20012;-43
2023/01/05 04:25:46;;;;;;;28.33;3.00;;;;;;;;;;6215542;23;20051;-45
2023/01/05 04:28:14;;;;;;;28.02;2.88;;;;;;;;;;6215491;23;20154;-42
2023/01/05 04:30:42;;;;;;;23.20;2.42;;;;;;;;;;6205918;23;20040;-43
2023/01/05 04:33:10;;;;;;;27.30;2.80;;;;;;;;;;6217031;23;20087;-41
2023/01/05 04:35:38;;;;;;;25.43;2.87;;;;;;;;;;6208244;23;20031;-42
2023/01/05 04:38:05;;;;;;;27.98;2.90;;;;;;;;;;6216846;23;20106;-42
2023/01/05 04:40:34;;;;;;;21.27;2.47;;;;;;;;;;6217039;23;20074;-42
2023/01/05 04:43:02;;;;;;;21.83;2.53;;;;;;;;;;6213752;23;20016;-43
2023/01/05 04:45:29;;;;;;;26.00;2.38;;;;;;;;;;6217348;23;20047;-43
2023/01/05 04:48:03;;;;;;;21.23;2.07;;;;;;;;;;6213162;23;20070;-42
2023/01/05 04:50:33;;;;;;;30.13;2.13;;;;;;;;;;6212934;23;20030;-43
2023/01/05 04:53:00;;;;;;;24.30;3.03;;;;;;;;;;6218438;23;20020;-44
2023/01/05 04:55:28;;;;;;;27.70;2.92;;;;;;;;;;6173110;23;20064;-43
2023/01/05 04:57:57;;;;;;;16.88;2.22;;;;;;;;;;6197624;23;20082;-43
2023/01/05 05:00:25;;;;;;;24.50;2.77;;;;;;;;;;6175522;23;20115;-44
2023/01/05 05:02:52;;;;;;;23.13;2.20;;;;;;;;;;6186817;23;20572;-42
2023/01/05 05:05:22;;;;;;;23.92;2.08;;;;;;;;;;6179774;23;20884;-42
2023/01/05 05:07:50;;;;;;;17.50;2.08;;;;;;;;;;6185475;23;20073;-43
2023/01/05 05:10:17;;;;;;;22.48;1.95;;;;;;;;;;6181613;23;20044;-42
2023/01/05 05:12:45;;;;;;;31.17;3.87;;;;;;;;;;6181252;23;20406;-42
2023/01/05 05:15:14;;;;;;;34.00;3.13;;;;;;;;;;6181558;23;20012;-42
2023/01/05 05:17:42;;;;;;;18.48;2.40;;;;;;;;;;6195522;23;20012;-42
2023/01/05 05:20:10;;;;;;;22.75;2.67;;;;;;;;;;6165078;23;20646;-42
2023/01/05 05:22:38;;;;;;;29.45;2.38;;;;;;;;;;6185275;23;20402;-41
2023/01/05 05:25:06;;;;;;;35.60;3.20;;;;;;;;;;6187581;23;20095;-44
2023/01/05 05:27:34;;;;;;;21.25;2.80;;;;;;;;;;6174865;23;20443;-42
2023/01/05 05:30:02;;;;;;;24.98;3.67;;;;;;;;;;6185955;23;20347;-42
2023/01/05 05:32:31;;;;;;;21.77;2.05;;;;;;;;;;6178484;23;20016;-42
2023/01/05 05:35:02;;;;;;;20.25;2.00;;;;;;;;;;6192590;23;20013;-43
2023/01/05 05:37:32;;;;;;;21.60;2.17;;;;;;;;;;6187496;23;20012;-42
2023/01/05 05:40:00;;;;;;;28.05;2.72;;;;;;;;;;6181168;23;20043;-42
2023/01/05 05:42:27;;;;;;;19.25;2.30;;;;;;;;;;6188842;23;20044;-42
2023/01/05 05:44:55;;;;;;;22.90;2.17;;;;;;;;;;6174516;23;20043;-42
2023/01/05 05:47:24;;;;;;;19.55;2.22;;;;;;;;;;6189362;23;20021;-44
2023/01/05 05:49:54;;;;;;;32.63;2.70;;;;;;;;;;6173896;23;20088;-43
2023/01/05 05:52:22;;;;;;;21.80;2.58;;;;;;;;;;6192394;23;20012;-42
2023/01/05 05:54:49;;;;;;;26.48;2.58;;;;;;;;;;6197202;23;20047;-42
2023/01/05 05:57:17;;;;;;;22.25;2.28;;;;;;;;;;6222061;23;20016;-42
2023/01/05 05:59:45;;;;;;;23.92;1.95;;;;;;;;;;6207566;23;20030;-46
2023/01/05 06:02:12;;;;;;;18.70;2.67;;;;;;;;;;6222622;23;20091;-43
2023/01/05 06:04:40;;;;;;;29.63;2.67;;;;;;;;;;6211372;23;20388;-42
2023/01/05 06:07:13;;;;;;;20.13;2.92;;;;;;;;;;6215660;23;20099;-43
2023/01/05 06:09:41;;;;;;;24.80;2.75;;;;;;;;;;6206692;23;20103;-42
2023/01/05 06:12:08;;;;;;;16.50;1.83;;;;;;;;;;6221584;23;20106;-42
2023/01/05 06:14:36;;;;;;;22.50;2.33;;;;;;;;;;6214382;23;20774;-44
2023/01/05 06:17:04;;;;;;;18.00;1.98;;;;;;;;;;6218484;23;20062;-43
2023/01/05 06:19:32;;;;;;;22.38;1.98;;;;;;;;;;6213544;23;20011;-42
2023/01/05 06:22:01;;;;;;;19.73;1.70;;;;;;;;;;6222405;23;20012;-42
2023/01/05 06:24:30;;;;;;;19.27;2.00;;;;;;;;;;6216642;23;20478;-42
2023/01/05 06:26:58;;;;;;;19.00;1.70;;;;;;;;;;6215374;23;20027;-42
2023/01/05 06:29:26;;;;;;;19.98;2.13;;;;;;;;;;6218014;23;20346;-42
2023/01/05 06:31:54;;;;;;;14.32;1.80;;;;;;;;;;6212492;23;20510;-42
2023/01/05 06:34:22;;;;;;;16.00;1.83;;;;;;;;;;6214474;23;20020;-42
2023/01/05 06:36:50;;;;;;;17.70;1.60;;;;;;;;;;6208514;23;20320;-42
2023/01/05 06:39:18;;;;;;;24.30;1.83;;;;;;;;;;6218796;23;20020;-43
2023/01/05 06:41:47;;;;;;;14.40;1.60;;;;;;;;;;6203297;22;20016;-42
2023/01/05 06:44:14;;;;;;;11.38;1.60;;;;;;;;;;6222781;23;20058;-42
2023/01/05 06:46:42;;;;;;;15.88;1.67;;;;;;;;;;6209515;23;20016;-42
2023/01/05 06:49:13;;;;;;;11.18;1.25;;;;;;;;;;6212265;23;20505;-42
2023/01/05 06:51:41;;;;;;;13.00;1.80;;;;;;;;;;6204822;23;20016;-42
2023/01/05 06:54:09;;;;;;;13.75;1.63;;;;;;;;;;6220181;23;20078;-42
2023/01/05 06:56:37;;;;;;;16.17;2.13;;;;;;;;;;6205980;23;20066;-45
2023/01/05 06:59:06;;;;;;;9.48;1.52;;;;;;;;;;6221621;23;20061;-48
2023/01/05 07:01:34;;;;;;;12.60;2.28;;;;;;;;;;6204175;23;20114;-42
2023/01/05 07:04:02;;;;;;;13.77;2.30;;;;;;;;;;6220905;23;20026;-43
2023/01/05 07:06:33;;;;;;;12.57;1.55;;;;;;;;;;6207987;23;20024;-41
2023/01/05 07:09:02;;;;;;;14.27;2.10;;;;;;;;;;6209510;23;20016;-42
2023/01/05 07:11:29;;;;;;;9.15;1.55;;;;;;;;;;6208699;23;20521;-43
2023/01/05 07:13:57;;;;;;;12.55;1.20;;;;;;;;;;6214291;23;20062;-43
2023/01/05 07:16:26;;;;;;;9.43;1.10;;;;;;;;;;6214687;23;20043;-42
2023/01/05 07:18:53;;;;;;;9.52;0.93;;;;;;;;;;6216784;23;20043;-42
2023/01/05 07:21:21;;;;;;;7.30;0.82;;;;;;;;;;6206123;23;20016;-43
2023/01/05 07:23:49;;;;;;;7.97;1.65;;;;;;;;;;6215944;23;20051;-46
2023/01/05 07:26:16;;;;;;;6.45;1.05;;;;;;;;;;6213671;23;20457;-41
2023/01/05 07:28:44;;;;;;;9.37;0.97;;;;;;;;;;6214364;23;20043;-41
2023/01/05 07:31:12;;;;;;;8.80;1.38;;;;;;;;;;6213284;23;20047;-45
2023/01/05 07:33:41;;;;;;;11.80;1.52;;;;;;;;;;6215262;23;20047;-41
2023/01/05 07:36:09;;;;;;;13.00;1.45;;;;;;;;;;6215161;23;20043;-43
2023/01/05 07:38:37;;;;;;;11.95;1.58;;;;;;;;;;6209978;23;20012;-43
2023/01/05 07:41:05;;;;;;;10.03;1.20;;;;;;;;;;6211327;23;20031;-46
2023/01/05 07:43:34;;;;;;;9.70;1.60;;;;;;;;;;6210324;23;20446;-42
2023/01/05 07:46:02;;;;;;;11.23;1.60;;;;;;;;;;6215663;23;20103;-42
2023/01/05 07:48:30;;;;;;;7.55;1.10;;;;;;;;;;6211209;23;20448;-42
2023/01/05 07:51:03;;;;;;;11.00;1.60;;;;;;;;;;6218842;23;20058;-42
2023/01/05 07:53:33;;;;;;;11.77;1.60;;;;;;;;;;6209841;23;20431;-44
2023/01/05 07:56:10;;;;;;;13.45;1.50;;;;;;;;;;6215716;23;20022;-42
2023/01/05 07:58:38;;;;;;;11.32;1.23;;;;;;;;;;6196761;23;20020;-45
2023/01/05 08:01:07;;;;;;;11.63;1.85;;;;;;;;;;6216179;23;20536;-44
2023/01/05 08:03:35;;;;;;;12.07;1.48;;;;;;;;;;6213298;23;20078;-42
2023/01/05 08:06:05;;;;;;;9.33;1.33;;;;;;;;;;6214569;23;20367;-42
2023/01/05 08:08:33;;;;;;;15.18;1.95;;;;;;;;;;6215574;23;20102;-41
2023/01/05 08:11:03;;;;;;;15.38;1.52;;;;;;;;;;6196618;23;20051;-42
2023/01/05 08:16:17;;;;;;;7.28;1.38;;;;;;;;;;6209090;23;20048;-42
2023/01/05 08:18:45;;;;;;;12.23;1.33;;;;;;;;;;6214074;23;20016;-48
2023/01/05 08:21:14;;;;;;;9.70;1.25;;;;;;;;;;6206613;23;20059;-44
2023/01/05 08:23:44;;;;;;;9.75;1.10;;;;;;;;;;6204159;23;20158;-42
2023/01/05 08:26:13;;;;;;;8.45;1.33;;;;;;;;;;6218951;23;20012;-41
2023/01/05 08:28:40;;;;;;;10.02;1.23;;;;;;;;;;6211322;23;20016;-44
2023/01/05 08:31:10;;;;;;;11.10;1.67;;;;;;;;;;6220459;23;20039;-44
2023/01/05 08:33:38;;;;;;;11.60;1.20;;;;;;;;;;6209071;23;20058;-43
2023/01/05 08:36:10;;;;;;;10.80;1.48;;;;;;;;;;6218249;23;20016;-43
2023/01/05 08:38:46;;;;;;;10.02;0.80;;;;;;;;;;6215035;23;20093;-43
2023/01/05 08:41:17;;;;;;;7.78;0.80;;;;;;;;;;6210552;23;20022;-45
2023/01/05 08:43:49;;;;;;;10.57;0.80;;;;;;;;;;6210218;23;20047;-45
2023/01/05 08:46:19;;;;;;;7.78;0.98;;;;;;;;;;6208179;23;20016;-43
2023/01/05 08:48:50;;;;;;;12.20;1.02;;;;;;;;;;6215230;23;20044;-43
2023/01/05 08:51:18;;;;;;;13.45;1.00;;;;;;;;;;6210464;23;20012;-43
2023/01/05 08:53:47;;;;;;;7.78;0.80;;;;;;;;;;6219800;23;20020;-44
2023/01/05 08:56:16;;;;;;;9.83;1.67;;;;;;;;;;6202858;23;20040;-43
2023/01/05 08:58:44;;;;;;;9.77;0.80;;;;;;;;;;6219978;23;20142;-42
2023/01/05 09:01:13;;;;;;;6.50;0.90;;;;;;;;;;6209207;23;20088;-44
2023/01/05 09:03:41;;;;;;;5.72;0.57;;;;;;;;;;6220780;23;20026;-44
2023/01/05 09:06:10;;;;;;;8.68;0.70;;;;;;;;;;6208803;23;20100;-43
2023/01/05 09:08:39;;;;;;;8.23;0.80;;;;;;;;;;6210884;23;20451;-42
2023/01/05 09:11:09;;;;;;;7.47;0.75;;;;;;;;;;6210737;23;20019;-42
2023/01/05 09:13:37;;;;;;;8.88;0.80;;;;;;;;;;6211346;23;20024;-42
2023/01/05 09:16:06;;;;;;;7.82;1.20;;;;;;;;;;6216519;23;20020;-45
2023/01/05 09:18:34;;;;;;;10.23;1.38;;;;;;;;;;6215237;23;20563;-46
2023/01/05 09:21:02;;;;;;;6.13;0.60;;;;;;;;;;6211049;23;20546;-43
2023/01/05 09:23:29;;;;;;;6.90;0.70;;;;;;;;;;6207572;23;20394;-41
2023/01/05 09:25:58;;;;;;;8.98;0.95;;;;;;;;;;6212808;23;20099;-43
2023/01/05 09:28:28;;;;;;;6.80;0.52;;;;;;;;;;6215964;23;20043;-42
2023/01/05 09:30:59;;;;;;;5.75;0.60;;;;;;;;;;6188762;23;20016;-43
2023/01/05 09:33:27;;;;;;;7.13;0.50;;;;;;;;;;6210822;23;20510;-42
2023/01/05 09:35:55;;;;;;;7.38;0.77;;;;;;;;;;6209903;23;20051;-42
2023/01/05 09:38:23;;;;;;;11.00;0.98;;;;;;;;;;6205236;23;20091;-42
2023/01/05 09:40:55;;;;;;;8.38;1.00;;;;;;;;;;6209108;23;20306;-42
2023/01/05 09:43:25;;;;;;;4.72;0.60;;;;;;;;;;6199679;23;20039;-42
2023/01/05 09:45:54;;;;;;;6.30;0.90;;;;;;;;;;6209500;23;20023;-45
2023/01/05 09:48:25;;;;;;;4.82;0.65;;;;;;;;;;6199125;23;20715;-43
2023/01/05 09:50:53;;;;;;;6.95;0.70;;;;;;;;;;6206249;23;20036;-43
2023/01/05 09:53:26;;;;;;;8.00;0.63;;;;;;;;;;6201202;23;20538;-41
2023/01/05 09:55:54;;;;;;;6.68;0.55;;;;;;;;;;6206628;23;20016;-42
2023/01/05 09:58:24;;;;;;;9.77;0.60;;;;;;;;;;6202062;23;20026;-45
2023/01/05 10:01:06;;;;;;;6.55;0.93;;;;;;;;;;6205558;22;20024;-42
2023/01/05 10:03:36;;;;;;;10.80;1.25;;;;;;;;;;6210680;22;20012;-43
2023/01/05 10:06:26;;;;;;;7.32;1.23;;;;;;;;;;6201943;23;20024;-42
2023/01/05 10:08:58;;;;;;;4.50;0.80;;;;;;;;;;6211358;23;20035;-42
2023/01/05 10:14:16;;;;;;;5.47;0.70;;;;;;;;;;6213412;23;20054;-42
2023/01/05 10:16:46;;;;;;;2.70;0.40;;;;;;;;;;6207349;23;20020;-45
2023/01/05 10:19:35;;;;;;;6.18;0.95;;;;;;;;;;6209332;23;20012;-43
2023/01/05 10:22:07;;;;;;;4.57;0.60;;;;;;;;;;6198245;23;20431;-42
2023/01/05 10:24:41;;;;;;;5.30;0.70;;;;;;;;;;6198721;23;20888;-42
2023/01/05 10:27:15;;;;;;;6.70;0.63;;;;;;;;;;6213483;23;20778;-43
2023/01/05 10:29:54;;;;;;;7.22;0.55;;;;;;;;;;6203291;23;20020;-43
2023/01/05 10:32:26;;;;;;;11.60;0.73;;;;;;;;;;6202123;22;20123;-43
2023/01/05 10:34:57;;;;;;;5.65;0.60;;;;;;;;;;6213519;23;20016;-43
2023/01/05 10:37:44;;;;;;;7.13;0.67;;;;;;;;;;6196600;23;20020;-42
2023/01/05 10:40:19;;;;;;;3.35;0.90;;;;;;;;;;6209429;23;20012;-44
2023/01/05 10:42:54;;;;;;;4.47;0.40;;;;;;;;;;6206950;23;20379;-43
2023/01/05 10:45:21;;;;;;;5.75;0.40;;;;;;;;;;6204608;23;20032;-43
2023/01/05 10:47:51;;;;;;;6.25;0.88;;;;;;;;;;6201289;23;20091;-42
2023/01/05 10:50:28;;;;;;;5.87;0.73;;;;;;;;;;6201354;23;20382;-43
2023/01/05 10:52:56;;;;;;;5.00;0.65;;;;;;;;;;6212040;23;20016;-43
2023/01/05 10:55:25;;;;;;;6.40;0.60;;;;;;;;;;6194131;23;20015;-42
2023/01/05 10:57:55;;;;;;;7.18;0.90;;;;;;;;;;6203296;23;20107;-41
2023/01/05 11:00:38;;;;;;;4.93;0.50;;;;;;;;;;6206713;23;20040;-42
2023/01/05 11:03:13;;;;;;;5.83;0.80;;;;;;;;;;6198054;23;20090;-43
2023/01/05 11:05:42;;;;;;;4.88;0.52;;;;;;;;;;6212068;23;20040;-42
2023/01/05 11:08:14;;;;;;;4.43;0.52;;;;;;;;;;6202257;23;20069;-42
2023/01/05 11:10:48;;;;;;;4.57;0.60;;;;;;;;;;6205582;22;20420;-43
2023/01/05 11:13:18;;;;;;;5.97;0.85;;;;;;;;;;6211558;23;20020;-43
2023/01/05 11:15:49;;;;;;;3.27;0.57;;;;;;;;;;6205688;23;20218;-42
2023/01/05 11:18:22;;;;;;;4.75;0.57;;;;;;;;;;6205810;23;20020;-42
2023/01/05 11:21:10;;;;;;;3.90;0.30;;;;;;;;;;6205793;23;20012;-43
2023/01/05 11:23:40;;;;;;;3.28;0.47;;;;;;;;;;6208613;23;20012;-41
2023/01/05 11:26:27;;;;;;;5.10;0.40;;;;;;;;;;6213222;22;20066;-42
2023/01/05 11:28:58;;;;;;;3.10;0.57;;;;;;;;;;6174148;22;20016;-42
2023/01/05 11:31:28;;;;;;;2.95;0.50;;;;;;;;;;6199840;23;20019;-42
2023/01/05 11:33:57;;;;;;;4.85;0.60;;;;;;;;;;6203629;23;20043;-42
2023/01/05 11:36:25;;;;;;;4.55;0.52;;;;;;;;;;6204954;23;20016;-46
2023/01/05 11:38:54;;;;;;;3.65;0.60;;;;;;;;;;6199079;23;20524;-42
2023/01/05 11:41:22;;;;;;;5.07;0.53;;;;;;;;;;6201435;23;20012;-41
2023/01/05 11:43:50;;;;;;;6.22;0.90;;;;;;;;;;6202953;23;20016;-43
2023/01/05 11:46:18;;;;;;;5.53;0.50;;;;;;;;;;6217676;23;20016;-44
2023/01/05 11:48:50;;;;;;;7.07;0.65;;;;;;;;;;6216857;23;20099;-41
2023/01/05 11:51:33;;;;;;;5.53;0.60;;;;;;;;;;6215119;23;20091;-43
2023/01/05 11:54:02;;;;;;;3.97;0.40;;;;;;;;;;6218738;23;20082;-41
2023/01/05 11:56:31;;;;;;;7.70;1.17;;;;;;;;;;6199170;23;20095;-41
2023/01/05 11:58:58;;;;;;;4.93;0.63;;;;;;;;;;6202065;23;20044;-43
2023/01/05 12:01:47;;;;;;;7.30;1.10;;;;;;;;;;6193458;23;20641;-42
2023/01/05 12:04:26;;;;;;;5.38;0.52;;;;;;;;;;6202410;23;20358;-42
2023/01/05 12:07:15;;;;;;;5.97;0.60;;;;;;;;;;6208878;23;20062;-42
2023/01/05 12:09:47;;;;;;;4.43;0.55;;;;;;;;;;6193203;23;20406;-43
2023/01/05 12:12:24;;;;;;;6.93;0.85;;;;;;;;;;6197176;23;20043;-42
2023/01/05 12:15:00;;;;;;;5.43;0.60;;;;;;;;;;6204303;23;20020;-42
2023/01/05 12:17:33;;;;;;;7.90;0.88;;;;;;;;;;6213198;23;20016;-41
2023/01/05 12:20:06;;;;;;;4.27;0.50;;;;;;;;;;6200736;23;20020;-41
2023/01/05 12:22:43;;;;;;;4.45;0.60;;;;;;;;;;6204625;23;20039;-40
2023/01/05 12:25:17;;;;;;;4.85;0.30;;;;;;;;;;6211758;23;20016;-42
2023/01/05 12:27:55;;;;;;;4.38;0.40;;;;;;;;;;6202716;23;20293;-47
2023/01/05 12:30:34;;;;;;;4.13;0.50;;;;;;;;;;6203539;23;20412;-41
2023/01/05 12:33:43;;;;;;;6.37;0.40;;;;;;;;;;6211204;23;20028;-44
2023/01/05 12:36:37;;;;;;;2.65;0.30;;;;;;;;;;6212490;23;20047;-42
2023/01/05 12:39:17;;;;;;;4.30;0.20;;;;;;;;;;6195416;23;20015;-42
2023/01/05 12:41:52;;;;;;;3.72;0.30;;;;;;;;;;6203878;23;20012;-42
2023/01/05 12:44:28;;;;;;;3.72;0.47;;;;;;;;;;6204484;23;20089;-44
2023/01/05 12:47:02;;;;;;;4.17;0.60;;;;;;;;;;6202262;23;20022;-41
2023/01/05 12:49:32;;;;;;;4.18;0.40;;;;;;;;;;6209808;23;20020;-44
2023/01/05 12:52:02;;;;;;;3.60;0.60;;;;;;;;;;6187626;23;20499;-42
2023/01/05 12:54:39;;;;;;;3.50;0.55;;;;;;;;;;6209943;23;20030;-44
2023/01/05 12:57:11;;;;;;;4.50;0.43;;;;;;;;;;6209969;23;20062;-42
2023/01/05 12:59:40;;;;;;;8.27;0.70;;;;;;;;;;6195464;23;20043;-42
2023/01/05 13:02:25;;;;;;;5.55;0.52;;;;;;;;;;6185781;23;20689;-43
2023/01/05 13:04:57;;;;;;;9.18;0.70;;;;;;;;;;6183205;23;20016;-42
2023/01/05 13:07:30;;;;;;;6.82;0.75;;;;;;;;;;6202409;23;20020;-42
2023/01/05 13:09:59;;;;;;;5.47;0.52;;;;;;;;;;6197421;23;20016;-41
2023/01/05 13:12:32;;;;;;;5.43;0.70;;;;;;;;;;6181625;23;20020;-41
2023/01/05 13:15:15;;;;;;;4.75;0.43;;;;;;;;;;6201835;23;20047;-42
2023/01/05 13:17:44;;;;;;;6.43;0.75;;;;;;;;;;6214298;23;20020;-42
2023/01/05 13:20:19;;;;;;;8.23;0.75;;;;;;;;;;6195919;23;20111;-42
2023/01/05 13:22:47;;;;;;;6.85;0.60;;;;;;;;;;6190439;23;20489;-41
2023/01/05 13:25:18;;;;;;;7.43;0.57;;;;;;;;;;6211750;23;20020;-42
2023/01/05 13:27:47;;;;;;;4.30;0.57;;;;;;;;;;6195132;23;20351;-44
2023/01/05 13:30:21;;;;;;;7.57;0.80;;;;;;;;;;6207412;23;20123;-43
2023/01/05 13:32:58;;;;;;;5.88;0.50;;;;;;;;;;6202706;23;20016;-42
2023/01/05 13:35:34;;;;;;;4.57;0.52;;;;;;;;;;6189725;23;20123;-44
2023/01/05 13:38:10;;;;;;;6.37;0.70;;;;;;;;;;6214296;23;20082;-43
2023/01/05 13:40:50;;;;;;;4.18;0.80;;;;;;;;;;6193383;23;20662;-42
2023/01/05 13:43:34;;;;;;;3.33;0.38;;;;;;;;;;6200326;23;20454;-42
2023/01/05 13:46:19;;;;;;;5.32;0.63;;;;;;;;;;6202198;23;20016;-42
2023/01/05 13:48:56;;;;;;;7.03;0.80;;;;;;;;;;6199983;23;20012;-42
2023/01/05 13:51:41;;;;;;;4.63;0.73;;;;;;;;;;6189933;23;20019;-42
2023/01/05 13:54:11;;;;;;;3.40;0.55;;;;;;;;;;6211805;23;20091;-41
2023/01/05 13:56:40;;;;;;;6.03;0.60;;;;;;;;;;6208103;23;20483;-41
2023/01/05 13:59:18;;;;;;;9.63;0.80;;;;;;;;;;6211994;23;20040;-41
2023/01/05 14:02:22;;;;;;;4.47;0.52;;;;;;;;;;6202891;23;20023;-43
2023/01/05 14:04:49;;;;;;;8.83;0.70;;;;;;;;;;6200423;23;20024;-42
2023/01/05 14:07:18;;;;;;;7.85;0.95;;;;;;;;;;6210891;23;20036;-43
2023/01/05 14:09:50;;;;;;;9.23;0.90;;;;;;;;;;6196052;23;20410;-41
2023/01/05 14:12:40;;;;;;;8.52;1.15;;;;;;;;;;6188162;23;20059;-42
2023/01/05 14:15:23;;;;;;;11.77;1.60;;;;;;;;;;6202156;23;20099;-41
2023/01/05 14:18:00;;;;;;;9.67;1.30;;;;;;;;;;6206818;22;20035;-42
2023/01/05 14:20:35;;;;;;;16.45;1.33;;;;;;;;;;6200695;23;20105;-42
2023/01/05 14:23:24;;;;;;;7.00;1.10;;;;;;;;;;6192970;23;20401;-42
2023/01/05 14:25:52;;;;;;;8.48;1.25;;;;;;;;;;6206630;23;20339;-44
2023/01/05 14:28:23;;;;;;;6.65;1.10;;;;;;;;;;6208118;23;20023;-43
2023/01/05 14:30:51;;;;;;;10.77;1.40;;;;;;;;;;6188662;23;20090;-41
2023/01/05 14:33:20;;;;;;;8.43;1.27;;;;;;;;;;6202210;22;20019;-42
2023/01/05 14:35:48;;;;;;;10.50;1.50;;;;;;;;;;6206342;23;20047;-42
2023/01/05 14:38:18;;;;;;;7.07;1.10;;;;;;;;;;6201833;23;20024;-42
2023/01/05 14:40:47;;;;;;;6.38;0.60;;;;;;;;;;6168592;23;20656;-42
2023/01/05 14:43:36;;;;;;;10.50;1.20;;;;;;;;;;6211230;23;20529;-42
2023/01/05 14:46:08;;;;;;;6.82;0.82;;;;;;;;;;6202226;23;20091;-42
2023/01/05 14:48:38;;;;;;;10.05;1.08;;;;;;;;;;6210418;22;20031;-42
2023/01/05 14:51:18;;;;;;;8.68;1.25;;;;;;;;;;6197332;23;20016;-45
2023/01/05 14:53:47;;;;;;;7.47;0.73;;;;;;;;;;6201909;23;20046;-44
2023/01/05 14:56:17;;;;;;;7.27;0.60;;;;;;;;;;6212850;23;20020;-42
2023/01/05 14:59:05;;;;;;;5.38;0.50;;;;;;;;;;6209317;23;20055;-41
2023/01/05 15:01:35;;;;;;;4.05;0.68;;;;;;;;;;6191834;23;20099;-42
2023/01/05 15:04:07;;;;;;;6.75;0.75;;;;;;;;;;6212325;23;20016;-41
2023/01/05 15:06:42;;;;;;;6.25;1.23;;;;;;;;;;6201164;23;20016;-41
2023/01/05 15:09:18;;;;;;;7.83;0.83;;;;;;;;;;6199742;23;20040;-42
2023/01/05 15:11:55;;;;;;;5.45;1.13;;;;;;;;;;6198904;23;20406;-42
2023/01/05 15:14:33;;;;;;;6.97;0.60;;;;;;;;;;6207846;22;20167;-41
2023/01/05 15:17:22;;;;;;;8.45;1.05;;;;;;;;;;6208263;22;20020;-42
2023/01/05 15:20:01;;;;;;;9.80;0.55;;;;;;;;;;6199300;23;20487;-43
2023/01/05 15:22:37;;;;;;;8.10;0.90;;;;;;;;;;6221140;23;20321;-42
2023/01/05 15:25:15;;;;;;;7.20;0.80;;;;;;;;;;6195007;23;20279;-44
2023/01/05 15:27:53;;;;;;;9.45;0.82;;;;;;;;;;6208855;23;20016;-43
2023/01/05 15:30:29;;;;;;;10.00;1.02;;;;;;;;;;6213629;23;20012;-41
2023/01/05 15:33:03;;;;;;;6.45;0.85;;;;;;;;;;6212717;23;20020;-41
2023/01/05 15:35:35;;;;;;;6.80;0.93;;;;;;;;;;6216145;23;20066;-41